sensor_id;sensor_type;location;lat;lon;timestamp;P1;durP1;ratioP1;P2;durP2;ratioP2
69856;SDS011;57147;53.582;10.112;2024-01-06T00:02:30;5.93;;;4.53;;
69856;SDS011;57147;53.582;10.112;2024-01-06T00:07:30;3.97;;;3.38;;
69856;SDS011;57147;53.582;10.112;2024-01-06T00:12:31;3.45;;;3.00;;
69856;SDS011;57147;53.582;10.112;2024-01-06T00:17:31;3.63;;;2.90;;
69856;SDS011;57147;53.582;10.112;2024-01-06T00:22:31;6.72;;;4.57;;
69856;SDS011;57147;53.582;10.112;2024-01-06T00:27:31;3.83;;;3.00;;
69856;SDS011;57147;53.582;10.112;2024-01-06T00:32:31;6.35;;;5.78;;
69856;SDS011;57147;53.582;10.112;2024-01-06T00:37:32;4.43;;;3.90;;
69856;SDS011;57147;53.582;10.112;2024-01-06T00:42:32;5.70;;;4.50;;
69856;SDS011;57147;53.582;10.112;2024-01-06T00:47:32;4.75;;;3.85;;
69856;SDS011;57147;53.582;10.112;2024-01-06T00:52:32;6.40;;;4.43;;
69856;SDS011;57147;53.582;10.112;2024-01-06T00:57:33;5.63;;;5.10;;
69856;SDS011;57147;53.582;10.112;2024-01-06T01:02:33;6.20;;;4.82;;
69856;SDS011;57147;53.582;10.112;2024-01-06T01:07:33;5.10;;;3.80;;
69856;SDS011;57147;53.582;10.112;2024-01-06T01:12:34;6.45;;;5.32;;
69856;SDS011;57147;53.582;10.112;2024-01-06T01:17:34;4.90;;;3.45;;
69856;SDS011;57147;53.582;10.112;2024-01-06T01:22:34;4.75;;;3.63;;
69856;SDS011;57147;53.582;10.112;2024-01-06T01:27:34;5.25;;;3.72;;
69856;SDS011;57147;53.582;10.112;2024-01-06T01:32:35;5.90;;;5.28;;
69856;SDS011;57147;53.582;10.112;2024-01-06T01:37:35;6.32;;;4.80;;
69856;SDS011;57147;53.582;10.112;2024-01-06T01:42:35;6.03;;;4.05;;
69856;SDS011;57147;53.582;10.112;2024-01-06T01:47:36;5.50;;;4.32;;
69856;SDS011;57147;53.582;10.112;2024-01-06T01:52:37;6.50;;;5.82;;
69856;SDS011;57147;53.582;10.112;2024-01-06T01:57:37;5.57;;;4.40;;
69856;SDS011;57147;53.582;10.112;2024-01-06T02:02:37;6.13;;;4.18;;
69856;SDS011;57147;53.582;10.112;2024-01-06T02:07:38;6.17;;;4.53;;
69856;SDS011;57147;53.582;10.112;2024-01-06T02:12:38;6.32;;;4.15;;
69856;SDS011;57147;53.582;10.112;2024-01-06T02:17:38;5.60;;;4.13;;
69856;SDS011;57147;53.582;10.112;2024-01-06T02:22:38;6.13;;;3.50;;
69856;SDS011;57147;53.582;10.112;2024-01-06T02:27:39;5.40;;;3.53;;
69856;SDS011;57147;53.582;10.112;2024-01-06T02:32:39;8.20;;;7.50;;
69856;SDS011;57147;53.582;10.112;2024-01-06T02:37:39;4.90;;;4.05;;
69856;SDS011;57147;53.582;10.112;2024-01-06T02:42:39;5.60;;;3.85;;
69856;SDS011;57147;53.582;10.112;2024-01-06T02:47:40;5.20;;;4.23;;
69856;SDS011;57147;53.582;10.112;2024-01-06T02:52:40;5.05;;;3.90;;
69856;SDS011;57147;53.582;10.112;2024-01-06T02:57:40;5.45;;;4.72;;
69856;SDS011;57147;53.582;10.112;2024-01-06T03:02:40;6.78;;;4.47;;
69856;SDS011;57147;53.582;10.112;2024-01-06T03:07:41;8.57;;;7.78;;
69856;SDS011;57147;53.582;10.112;2024-01-06T03:12:41;6.43;;;4.07;;
69856;SDS011;57147;53.582;10.112;2024-01-06T03:17:41;5.65;;;5.00;;
69856;SDS011;57147;53.582;10.112;2024-01-06T03:22:41;6.70;;;4.95;;
69856;SDS011;57147;53.582;10.112;2024-01-06T03:27:42;5.55;;;4.60;;
69856;SDS011;57147;53.582;10.112;2024-01-06T03:32:42;5.35;;;4.53;;
69856;SDS011;57147;53.582;10.112;2024-01-06T03:37:43;5.65;;;4.25;;
69856;SDS011;57147;53.582;10.112;2024-01-06T03:42:43;5.20;;;4.50;;
69856;SDS011;57147;53.582;10.112;2024-01-06T03:47:43;6.85;;;4.22;;
69856;SDS011;57147;53.582;10.112;2024-01-06T03:52:43;7.85;;;5.95;;
69856;SDS011;57147;53.582;10.112;2024-01-06T03:57:44;6.15;;;5.28;;
69856;SDS011;57147;53.582;10.112;2024-01-06T04:02:44;5.60;;;4.85;;
69856;SDS011;57147;53.582;10.112;2024-01-06T04:07:44;6.13;;;4.85;;
69856;SDS011;57147;53.582;10.112;2024-01-06T04:12:44;6.80;;;5.55;;
69856;SDS011;57147;53.582;10.112;2024-01-06T04:17:46;5.85;;;3.72;;
69856;SDS011;57147;53.582;10.112;2024-01-06T04:22:48;6.88;;;4.55;;
69856;SDS011;57147;53.582;10.112;2024-01-06T04:27:48;7.15;;;6.15;;
69856;SDS011;57147;53.582;10.112;2024-01-06T04:32:49;8.18;;;4.35;;
69856;SDS011;57147;53.582;10.112;2024-01-06T04:37:49;5.43;;;4.32;;
69856;SDS011;57147;53.582;10.112;2024-01-06T04:42:49;8.95;;;5.72;;
69856;SDS011;57147;53.582;10.112;2024-01-06T04:47:50;6.25;;;4.72;;
69856;SDS011;57147;53.582;10.112;2024-01-06T04:52:51;6.43;;;5.13;;
69856;SDS011;57147;53.582;10.112;2024-01-06T04:57:51;8.35;;;7.55;;
69856;SDS011;57147;53.582;10.112;2024-01-06T05:02:51;6.45;;;4.93;;
69856;SDS011;57147;53.582;10.112;2024-01-06T05:07:51;6.57;;;4.97;;
69856;SDS011;57147;53.582;10.112;2024-01-06T05:12:52;5.97;;;4.82;;
69856;SDS011;57147;53.582;10.112;2024-01-06T05:17:52;7.65;;;6.65;;
69856;SDS011;57147;53.582;10.112;2024-01-06T05:22:52;8.73;;;7.90;;
69856;SDS011;57147;53.582;10.112;2024-01-06T05:27:52;7.82;;;5.00;;
69856;SDS011;57147;53.582;10.112;2024-01-06T05:32:53;8.80;;;6.00;;
69856;SDS011;57147;53.582;10.112;2024-01-06T05:37:53;7.60;;;5.80;;
69856;SDS011;57147;53.582;10.112;2024-01-06T05:42:53;8.50;;;5.65;;
69856;SDS011;57147;53.582;10.112;2024-01-06T05:47:53;7.47;;;6.30;;
69856;SDS011;57147;53.582;10.112;2024-01-06T05:52:53;7.60;;;5.88;;
69856;SDS011;57147;53.582;10.112;2024-01-06T05:57:54;7.82;;;6.43;;
69856;SDS011;57147;53.582;10.112;2024-01-06T06:02:54;6.68;;;5.63;;
69856;SDS011;57147;53.582;10.112;2024-01-06T06:07:54;7.40;;;5.15;;
69856;SDS011;57147;53.582;10.112;2024-01-06T06:12:54;8.65;;;5.18;;
69856;SDS011;57147;53.582;10.112;2024-01-06T06:17:55;9.70;;;6.40;;
69856;SDS011;57147;53.582;10.112;2024-01-06T06:22:55;8.45;;;5.68;;
69856;SDS011;57147;53.582;10.112;2024-01-06T06:27:55;10.88;;;9.77;;
69856;SDS011;57147;53.582;10.112;2024-01-06T06:32:55;8.60;;;6.63;;
69856;SDS011;57147;53.582;10.112;2024-01-06T06:37:56;10.63;;;9.60;;
69856;SDS011;57147;53.582;10.112;2024-01-06T06:42:56;9.75;;;8.75;;
69856;SDS011;57147;53.582;10.112;2024-01-06T06:47:56;8.20;;;6.25;;
69856;SDS011;57147;53.582;10.112;2024-01-06T06:52:56;11.00;;;5.50;;
69856;SDS011;57147;53.582;10.112;2024-01-06T06:57:57;9.77;;;8.30;;
69856;SDS011;57147;53.582;10.112;2024-01-06T07:02:57;9.40;;;6.32;;
69856;SDS011;57147;53.582;10.112;2024-01-06T07:07:59;11.23;;;9.68;;
69856;SDS011;57147;53.582;10.112;2024-01-06T07:13:00;9.57;;;5.05;;
69856;SDS011;57147;53.582;10.112;2024-01-06T07:18:00;8.98;;;6.70;;
69856;SDS011;57147;53.582;10.112;2024-01-06T07:23:00;10.07;;;7.90;;
69856;SDS011;57147;53.582;10.112;2024-01-06T07:28:01;9.95;;;6.32;;
69856;SDS011;57147;53.582;10.112;2024-01-06T07:33:01;9.87;;;6.77;;
69856;SDS011;57147;53.582;10.112;2024-01-06T07:38:01;9.05;;;7.20;;
69856;SDS011;57147;53.582;10.112;2024-01-06T07:43:01;8.27;;;6.18;;
69856;SDS011;57147;53.582;10.112;2024-01-06T07:48:02;7.83;;;5.97;;
69856;SDS011;57147;53.582;10.112;2024-01-06T07:53:02;8.40;;;5.07;;
69856;SDS011;57147;53.582;10.112;2024-01-06T07:58:03;9.02;;;5.35;;
69856;SDS011;57147;53.582;10.112;2024-01-06T08:03:03;9.10;;;5.50;;
69856;SDS011;57147;53.582;10.112;2024-01-06T08:08:04;10.95;;;9.85;;
69856;SDS011;57147;53.582;10.112;2024-01-06T08:13:05;8.75;;;7.05;;
69856;SDS011;57147;53.582;10.112;2024-01-06T08:18:05;8.88;;;6.43;;
69856;SDS011;57147;53.582;10.112;2024-01-06T08:23:05;7.20;;;5.70;;
69856;SDS011;57147;53.582;10.112;2024-01-06T08:28:06;9.68;;;5.72;;
69856;SDS011;57147;53.582;10.112;2024-01-06T08:33:06;8.45;;;5.88;;
69856;SDS011;57147;53.582;10.112;2024-01-06T08:38:07;12.50;;;7.77;;
69856;SDS011;57147;53.582;10.112;2024-01-06T08:43:07;7.78;;;6.00;;
69856;SDS011;57147;53.582;10.112;2024-01-06T08:48:07;8.55;;;5.75;;
69856;SDS011;57147;53.582;10.112;2024-01-06T08:53:07;9.73;;;5.38;;
69856;SDS011;57147;53.582;10.112;2024-01-06T08:58:08;7.93;;;6.00;;
69856;SDS011;57147;53.582;10.112;2024-01-06T09:03:08;9.13;;;6.00;;
69856;SDS011;57147;53.582;10.112;2024-01-06T09:08:08;9.45;;;7.13;;
69856;SDS011;57147;53.582;10.112;2024-01-06T09:13:08;9.18;;;6.05;;
69856;SDS011;57147;53.582;10.112;2024-01-06T09:18:09;8.27;;;5.65;;
69856;SDS011;57147;53.582;10.112;2024-01-06T09:23:09;9.77;;;5.45;;
69856;SDS011;57147;53.582;10.112;2024-01-06T09:28:10;9.00;;;5.85;;
69856;SDS011;57147;53.582;10.112;2024-01-06T09:33:10;9.30;;;6.60;;
69856;SDS011;57147;53.582;10.112;2024-01-06T09:38:10;9.20;;;6.33;;
69856;SDS011;57147;53.582;10.112;2024-01-06T09:43:11;8.02;;;5.47;;
69856;SDS011;57147;53.582;10.112;2024-01-06T09:48:12;8.80;;;7.47;;
69856;SDS011;57147;53.582;10.112;2024-01-06T09:53:13;9.18;;;6.15;;
69856;SDS011;57147;53.582;10.112;2024-01-06T09:58:13;8.87;;;5.47;;
69856;SDS011;57147;53.582;10.112;2024-01-06T10:03:14;9.07;;;4.85;;
69856;SDS011;57147;53.582;10.112;2024-01-06T10:08:14;8.65;;;6.40;;
69856;SDS011;57147;53.582;10.112;2024-01-06T10:13:16;9.27;;;6.15;;
69856;SDS011;57147;53.582;10.112;2024-01-06T10:18:17;9.93;;;6.53;;
69856;SDS011;57147;53.582;10.112;2024-01-06T10:23:18;9.52;;;6.68;;
69856;SDS011;57147;53.582;10.112;2024-01-06T10:28:20;21.00;;;9.90;;
69856;SDS011;57147;53.582;10.112;2024-01-06T10:33:21;12.85;;;9.38;;
69856;SDS011;57147;53.582;10.112;2024-01-06T10:38:22;8.52;;;7.25;;
69856;SDS011;57147;53.582;10.112;2024-01-06T10:43:26;16.00;;;7.30;;
69856;SDS011;57147;53.582;10.112;2024-01-06T10:48:27;11.35;;;6.90;;
69856;SDS011;57147;53.582;10.112;2024-01-06T10:53:31;10.60;;;6.03;;
69856;SDS011;57147;53.582;10.112;2024-01-06T10:58:32;9.05;;;5.85;;
69856;SDS011;57147;53.582;10.112;2024-01-06T11:03:32;11.35;;;6.47;;
69856;SDS011;57147;53.582;10.112;2024-01-06T11:08:36;12.07;;;7.60;;
69856;SDS011;57147;53.582;10.112;2024-01-06T11:13:49;11.10;;;7.07;;
69856;SDS011;57147;53.582;10.112;2024-01-06T11:18:50;7.30;;;4.85;;
69856;SDS011;57147;53.582;10.112;2024-01-06T11:29:15;9.40;;;5.50;;
69856;SDS011;57147;53.582;10.112;2024-01-06T11:34:16;10.30;;;5.72;;
69856;SDS011;57147;53.582;10.112;2024-01-06T11:39:36;9.43;;;5.72;;
69856;SDS011;57147;53.582;10.112;2024-01-06T11:44:38;9.52;;;5.93;;
69856;SDS011;57147;53.582;10.112;2024-01-06T11:49:39;6.32;;;4.53;;
69856;SDS011;57147;53.582;10.112;2024-01-06T11:54:43;7.93;;;5.07;;
69856;SDS011;57147;53.582;10.112;2024-01-06T11:59:43;7.78;;;4.68;;
69856;SDS011;57147;53.582;10.112;2024-01-06T12:04:50;5.40;;;3.53;;
69856;SDS011;57147;53.582;10.112;2024-01-06T12:10:00;8.98;;;5.20;;
69856;SDS011;57147;53.582;10.112;2024-01-06T12:15:01;7.43;;;4.93;;
69856;SDS011;57147;53.582;10.112;2024-01-06T12:20:02;7.50;;;4.47;;
69856;SDS011;57147;53.582;10.112;2024-01-06T12:25:02;5.40;;;3.22;;
69856;SDS011;57147;53.582;10.112;2024-01-06T12:30:03;5.60;;;3.90;;
69856;SDS011;57147;53.582;10.112;2024-01-06T12:35:03;11.48;;;5.35;;
69856;SDS011;57147;53.582;10.112;2024-01-06T12:40:04;7.60;;;4.38;;
69856;SDS011;57147;53.582;10.112;2024-01-06T12:45:05;9.75;;;6.75;;
69856;SDS011;57147;53.582;10.112;2024-01-06T12:50:06;7.82;;;7.00;;
69856;SDS011;57147;53.582;10.112;2024-01-06T12:55:07;6.93;;;4.57;;
69856;SDS011;57147;53.582;10.112;2024-01-06T13:00:08;7.07;;;4.33;;
69856;SDS011;57147;53.582;10.112;2024-01-06T13:05:08;7.68;;;6.38;;
69856;SDS011;57147;53.582;10.112;2024-01-06T13:10:08;5.30;;;4.10;;
69856;SDS011;57147;53.582;10.112;2024-01-06T13:15:09;4.97;;;3.70;;
69856;SDS011;57147;53.582;10.112;2024-01-06T13:20:09;5.20;;;3.38;;
69856;SDS011;57147;53.582;10.112;2024-01-06T13:25:10;5.53;;;3.40;;
69856;SDS011;57147;53.582;10.112;2024-01-06T13:30:10;4.72;;;3.30;;
69856;SDS011;57147;53.582;10.112;2024-01-06T13:35:11;4.65;;;2.85;;
69856;SDS011;57147;53.582;10.112;2024-01-06T13:40:11;6.17;;;3.77;;
69856;SDS011;57147;53.582;10.112;2024-01-06T13:45:12;5.07;;;3.90;;
69856;SDS011;57147;53.582;10.112;2024-01-06T13:50:12;4.40;;;3.75;;
69856;SDS011;57147;53.582;10.112;2024-01-06T13:55:14;5.32;;;4.82;;
69856;SDS011;57147;53.582;10.112;2024-01-06T14:00:14;4.55;;;4.15;;
69856;SDS011;57147;53.582;10.112;2024-01-06T14:05:15;4.68;;;3.70;;
69856;SDS011;57147;53.582;10.112;2024-01-06T14:10:15;4.28;;;3.55;;
69856;SDS011;57147;53.582;10.112;2024-01-06T14:15:16;4.88;;;3.95;;
69856;SDS011;57147;53.582;10.112;2024-01-06T14:20:16;4.40;;;3.15;;
69856;SDS011;57147;53.582;10.112;2024-01-06T14:25:17;5.30;;;3.83;;
69856;SDS011;57147;53.582;10.112;2024-01-06T14:30:17;5.78;;;4.32;;
69856;SDS011;57147;53.582;10.112;2024-01-06T14:35:17;5.55;;;4.95;;
69856;SDS011;57147;53.582;10.112;2024-01-06T14:40:18;4.53;;;3.63;;
69856;SDS011;57147;53.582;10.112;2024-01-06T14:45:18;4.90;;;4.30;;
69856;SDS011;57147;53.582;10.112;2024-01-06T14:50:18;6.03;;;4.00;;
69856;SDS011;57147;53.582;10.112;2024-01-06T14:55:19;5.20;;;4.20;;
69856;SDS011;57147;53.582;10.112;2024-01-06T15:00:19;5.43;;;4.93;;
69856;SDS011;57147;53.582;10.112;2024-01-06T15:05:19;6.40;;;4.17;;
69856;SDS011;57147;53.582;10.112;2024-01-06T15:10:19;5.57;;;4.13;;
69856;SDS011;57147;53.582;10.112;2024-01-06T15:15:21;6.07;;;5.37;;
69856;SDS011;57147;53.582;10.112;2024-01-06T15:20:21;7.07;;;5.07;;
69856;SDS011;57147;53.582;10.112;2024-01-06T15:25:21;4.93;;;4.30;;
69856;SDS011;57147;53.582;10.112;2024-01-06T15:30:22;5.95;;;4.45;;
69856;SDS011;57147;53.582;10.112;2024-01-06T15:35:22;8.15;;;5.45;;
69856;SDS011;57147;53.582;10.112;2024-01-06T15:40:22;7.57;;;5.32;;
69856;SDS011;57147;53.582;10.112;2024-01-06T15:45:22;7.40;;;4.53;;
69856;SDS011;57147;53.582;10.112;2024-01-06T15:50:23;8.07;;;4.83;;
69856;SDS011;57147;53.582;10.112;2024-01-06T15:55:23;7.20;;;5.20;;
69856;SDS011;57147;53.582;10.112;2024-01-06T16:00:23;7.95;;;6.45;;
69856;SDS011;57147;53.582;10.112;2024-01-06T16:05:24;6.90;;;5.63;;
69856;SDS011;57147;53.582;10.112;2024-01-06T16:10:24;6.90;;;5.65;;
69856;SDS011;57147;53.582;10.112;2024-01-06T16:15:27;7.60;;;5.97;;
69856;SDS011;57147;53.582;10.112;2024-01-06T16:20:28;8.15;;;5.00;;
69856;SDS011;57147;53.582;10.112;2024-01-06T16:25:28;7.05;;;4.40;;
69856;SDS011;57147;53.582;10.112;2024-01-06T16:30:28;7.73;;;3.93;;
69856;SDS011;57147;53.582;10.112;2024-01-06T16:35:29;5.50;;;4.33;;
69856;SDS011;57147;53.582;10.112;2024-01-06T16:40:29;6.27;;;5.30;;
69856;SDS011;57147;53.582;10.112;2024-01-06T16:45:29;6.40;;;3.75;;
69856;SDS011;57147;53.582;10.112;2024-01-06T16:50:30;7.40;;;5.05;;
69856;SDS011;57147;53.582;10.112;2024-01-06T16:55:30;5.27;;;4.77;;
69856;SDS011;57147;53.582;10.112;2024-01-06T17:00:30;5.53;;;4.60;;
69856;SDS011;57147;53.582;10.112;2024-01-06T17:05:31;6.43;;;4.47;;
69856;SDS011;57147;53.582;10.112;2024-01-06T17:10:31;5.97;;;4.27;;
69856;SDS011;57147;53.582;10.112;2024-01-06T17:15:31;9.70;;;5.20;;
69856;SDS011;57147;53.582;10.112;2024-01-06T17:20:32;5.33;;;3.37;;
69856;SDS011;57147;53.582;10.112;2024-01-06T17:25:32;5.87;;;4.47;;
69856;SDS011;57147;53.582;10.112;2024-01-06T17:30:32;7.10;;;4.90;;
69856;SDS011;57147;53.582;10.112;2024-01-06T17:35:33;6.18;;;4.13;;
69856;SDS011;57147;53.582;10.112;2024-01-06T17:40:33;8.37;;;4.83;;
69856;SDS011;57147;53.582;10.112;2024-01-06T17:45:33;9.85;;;6.40;;
69856;SDS011;57147;53.582;10.112;2024-01-06T17:50:34;6.88;;;4.82;;
69856;SDS011;57147;53.582;10.112;2024-01-06T17:55:34;5.82;;;5.22;;
69856;SDS011;57147;53.582;10.112;2024-01-06T18:00:34;7.03;;;4.63;;
69856;SDS011;57147;53.582;10.112;2024-01-06T18:05:34;6.38;;;5.45;;
69856;SDS011;57147;53.582;10.112;2024-01-06T18:10:37;7.40;;;5.55;;
69856;SDS011;57147;53.582;10.112;2024-01-06T18:15:38;7.72;;;6.50;;
69856;SDS011;57147;53.582;10.112;2024-01-06T18:20:38;6.93;;;5.83;;
69856;SDS011;57147;53.582;10.112;2024-01-06T18:25:38;6.40;;;4.77;;
69856;SDS011;57147;53.582;10.112;2024-01-06T18:30:40;6.15;;;4.13;;
69856;SDS011;57147;53.582;10.112;2024-01-06T18:35:40;9.70;;;5.90;;
69856;SDS011;57147;53.582;10.112;2024-01-06T18:40:40;6.57;;;4.30;;
69856;SDS011;57147;53.582;10.112;2024-01-06T18:45:41;6.83;;;4.10;;
69856;SDS011;57147;53.582;10.112;2024-01-06T18:50:41;6.78;;;3.65;;
69856;SDS011;57147;53.582;10.112;2024-01-06T18:55:41;8.53;;;5.63;;
69856;SDS011;57147;53.582;10.112;2024-01-06T19:00:42;4.63;;;3.30;;
69856;SDS011;57147;53.582;10.112;2024-01-06T19:05:42;4.50;;;3.22;;
69856;SDS011;57147;53.582;10.112;2024-01-06T19:10:42;6.27;;;5.07;;
69856;SDS011;57147;53.582;10.112;2024-01-06T19:15:43;7.23;;;4.43;;
69856;SDS011;57147;53.582;10.112;2024-01-06T19:20:43;4.50;;;3.70;;
69856;SDS011;57147;53.582;10.112;2024-01-06T19:25:43;3.47;;;3.00;;
69856;SDS011;57147;53.582;10.112;2024-01-06T19:30:44;9.03;;;6.37;;
69856;SDS011;57147;53.582;10.112;2024-01-06T19:35:44;8.13;;;5.90;;
69856;SDS011;57147;53.582;10.112;2024-01-06T19:40:44;4.43;;;3.03;;
69856;SDS011;57147;53.582;10.112;2024-01-06T19:45:44;7.18;;;4.85;;
69856;SDS011;57147;53.582;10.112;2024-01-06T19:50:45;4.28;;;2.47;;
69856;SDS011;57147;53.582;10.112;2024-01-06T19:55:45;7.63;;;3.80;;
69856;SDS011;57147;53.582;10.112;2024-01-06T20:00:46;4.43;;;3.90;;
69856;SDS011;57147;53.582;10.112;2024-01-06T20:05:46;5.93;;;4.13;;
69856;SDS011;57147;53.582;10.112;2024-01-06T20:10:46;6.32;;;5.13;;
69856;SDS011;57147;53.582;10.112;2024-01-06T20:15:47;5.20;;;3.27;;
69856;SDS011;57147;53.582;10.112;2024-01-06T20:20:47;4.07;;;3.45;;
69856;SDS011;57147;53.582;10.112;2024-01-06T20:25:47;4.03;;;3.63;;
69856;SDS011;57147;53.582;10.112;2024-01-06T20:30:48;4.10;;;2.90;;
69856;SDS011;57147;53.582;10.112;2024-01-06T20:35:48;4.60;;;3.43;;
69856;SDS011;57147;53.582;10.112;2024-01-06T20:40:48;4.80;;;3.57;;
69856;SDS011;57147;53.582;10.112;2024-01-06T20:45:49;5.57;;;4.50;;
69856;SDS011;57147;53.582;10.112;2024-01-06T20:50:49;4.43;;;3.38;;
69856;SDS011;57147;53.582;10.112;2024-01-06T20:55:49;3.58;;;2.45;;
69856;SDS011;57147;53.582;10.112;2024-01-06T21:00:49;7.93;;;5.18;;
69856;SDS011;57147;53.582;10.112;2024-01-06T21:05:50;4.97;;;3.72;;
69856;SDS011;57147;53.582;10.112;2024-01-06T21:10:50;3.40;;;2.33;;
69856;SDS011;57147;53.582;10.112;2024-01-06T21:15:51;3.90;;;2.10;;
69856;SDS011;57147;53.582;10.112;2024-01-06T21:20:51;3.67;;;2.60;;
69856;SDS011;57147;53.582;10.112;2024-01-06T21:25:52;5.43;;;4.07;;
69856;SDS011;57147;53.582;10.112;2024-01-06T21:30:52;5.68;;;3.60;;
69856;SDS011;57147;53.582;10.112;2024-01-06T21:35:52;3.80;;;2.72;;
69856;SDS011;57147;53.582;10.112;2024-01-06T21:40:52;3.45;;;2.63;;
69856;SDS011;57147;53.582;10.112;2024-01-06T21:45:53;4.57;;;2.67;;
69856;SDS011;57147;53.582;10.112;2024-01-06T21:50:53;7.22;;;6.68;;
69856;SDS011;57147;53.582;10.112;2024-01-06T21:55:54;3.38;;;2.08;;
69856;SDS011;57147;53.582;10.112;2024-01-06T22:00:54;4.07;;;2.60;;
69856;SDS011;57147;53.582;10.112;2024-01-06T22:05:54;4.80;;;2.85;;
69856;SDS011;57147;53.582;10.112;2024-01-06T22:10:55;6.18;;;3.15;;
69856;SDS011;57147;53.582;10.112;2024-01-06T22:15:56;7.25;;;3.92;;
69856;SDS011;57147;53.582;10.112;2024-01-06T22:20:56;4.65;;;3.30;;
69856;SDS011;57147;53.582;10.112;2024-01-06T22:25:56;3.83;;;3.53;;
69856;SDS011;57147;53.582;10.112;2024-01-06T22:30:57;4.53;;;2.30;;
69856;SDS011;57147;53.582;10.112;2024-01-06T22:35:57;4.53;;;3.03;;
69856;SDS011;57147;53.582;10.112;2024-01-06T22:40:58;2.92;;;2.20;;
69856;SDS011;57147;53.582;10.112;2024-01-06T22:45:58;3.10;;;2.13;;
69856;SDS011;57147;53.582;10.112;2024-01-06T22:50:58;2.55;;;1.55;;
69856;SDS011;57147;53.582;10.112;2024-01-06T22:55:59;2.85;;;2.47;;
69856;SDS011;57147;53.582;10.112;2024-01-06T23:00:59;3.28;;;3.00;;
69856;SDS011;57147;53.582;10.112;2024-01-06T23:05:59;4.33;;;4.03;;
69856;SDS011;57147;53.582;10.112;2024-01-06T23:10:59;3.07;;;2.33;;
69856;SDS011;57147;53.582;10.112;2024-01-06T23:16:00;2.97;;;2.03;;
69856;SDS011;57147;53.582;10.112;2024-01-06T23:21:00;3.05;;;2.20;;
69856;SDS011;57147;53.582;10.112;2024-01-06T23:26:00;3.03;;;1.73;;
69856;SDS011;57147;53.582;10.112;2024-01-06T23:31:01;2.30;;;2.00;;
69856;SDS011;57147;53.582;10.112;2024-01-06T23:36:01;3.03;;;1.95;;
69856;SDS011;57147;53.582;10.112;2024-01-06T23:41:01;3.47;;;2.45;;
69856;SDS011;57147;53.582;10.112;2024-01-06T23:46:01;4.70;;;2.77;;
69856;SDS011;57147;53.582;10.112;2024-01-06T23:51:02;3.07;;;2.10;;
69856;SDS011;57147;53.582;10.112;2024-01-06T23:56:02;5.00;;;2.37;;
